createdAt,value
2019-05-22T00:03:36.662Z,0
2019-05-22T00:09:09.264Z,0
2019-05-22T00:14:41.796Z,0
2019-05-22T00:20:14.369Z,0
2019-05-22T00:25:46.952Z,0
2019-05-22T00:31:19.412Z,0
2019-05-22T00:36:52.019Z,0
2019-05-22T00:42:24.518Z,0
2019-05-22T00:47:56.985Z,0
2019-05-22T00:53:29.509Z,0
2019-05-22T00:59:02.014Z,0
2019-05-22T01:04:34.430Z,0
2019-05-22T01:10:07.298Z,0
2019-05-22T01:15:39.305Z,0
2019-05-22T01:21:11.724Z,0
2019-05-22T01:26:44.037Z,0
2019-05-22T01:32:16.583Z,5.9
2019-05-22T01:37:49.607Z,5.9
2019-05-22T01:43:22.256Z,5.9
2019-05-22T01:48:55.392Z,8.4
2019-05-22T01:54:28.539Z,9.6
2019-05-22T02:00:01.638Z,9.6
2019-05-22T02:05:33.958Z,0
2019-05-22T02:11:06.298Z,0
2019-05-22T02:16:53.852Z,7.2
2019-05-22T02:22:12.045Z,8.4
2019-05-22T02:27:45.194Z,8.4
2019-05-22T02:33:17.741Z,7.2
2019-05-22T02:38:50.045Z,0
2019-05-22T02:44:22.345Z,0
2019-05-22T02:49:54.511Z,0
2019-05-22T02:55:26.721Z,0
2019-05-22T03:00:58.927Z,0
2019-05-22T03:06:31.219Z,2.4
2019-05-22T03:12:03.493Z,3.6
2019-05-22T03:17:35.711Z,3.6
2019-05-22T03:23:08.610Z,0
2019-05-22T03:28:40.204Z,0
2019-05-22T03:34:12.405Z,0
2019-05-22T03:39:44.700Z,0
2019-05-22T03:45:16.932Z,0
2019-05-22T03:50:49.151Z,0
2019-05-22T03:56:21.395Z,0
2019-05-22T04:01:53.602Z,0
2019-05-22T04:07:25.756Z,0
2019-05-22T04:12:57.975Z,0
2019-05-22T04:18:31.604Z,0
2019-05-22T04:24:02.310Z,0
2019-05-22T04:29:35.037Z,9.6
2019-05-22T04:35:08.210Z,13.2
2019-05-22T04:40:41.448Z,15.6
2019-05-22T04:46:14.665Z,13.2
2019-05-22T04:51:47.893Z,13.2
2019-05-22T04:57:20.906Z,8.4
2019-05-22T05:02:53.371Z,0
2019-05-22T05:08:26.393Z,8.4
2019-05-22T05:13:59.626Z,7.2
2019-05-22T05:19:32.892Z,8.4
2019-05-22T05:25:06.115Z,10.7
2019-05-22T05:30:39.452Z,10.7
2019-05-22T05:36:12.758Z,11.9
2019-05-22T05:41:46.102Z,11.9
2019-05-22T05:47:19.473Z,14.4
2019-05-22T05:52:52.898Z,13.2
2019-05-22T05:58:25.701Z,5.9
2019-05-22T06:03:59.044Z,9.6
2019-05-22T06:09:32.509Z,7.2
2019-05-22T06:15:05.221Z,5.9
2019-05-22T06:20:37.931Z,0
2019-05-22T06:26:10.781Z,0
2019-05-22T06:31:43.521Z,0
2019-05-22T06:37:16.629Z,10.7
2019-05-22T06:42:50.371Z,10.7
2019-05-22T06:48:24.085Z,10.7
2019-05-22T06:53:57.868Z,10.7
2019-05-22T06:59:31.894Z,10.7
2019-05-22T07:05:06.000Z,13.2
2019-05-22T07:10:40.031Z,9.6
2019-05-22T07:16:14.236Z,10.7
2019-05-22T07:21:48.561Z,11.9
2019-05-22T07:27:22.831Z,11.9
2019-05-22T07:32:57.309Z,14.4
2019-05-22T07:38:31.736Z,15.6
2019-05-22T07:44:06.196Z,16.8
2019-05-22T07:49:40.704Z,18
2019-05-22T07:55:15.177Z,18
2019-05-22T08:00:49.745Z,22.8
2019-05-22T08:06:24.288Z,19.2
2019-05-22T08:11:58.897Z,18
2019-05-22T08:17:33.505Z,19.2
2019-05-22T08:23:08.151Z,16.8
2019-05-22T08:28:42.872Z,20.4
2019-05-22T08:34:17.662Z,20.4
2019-05-22T08:39:52.616Z,21.5
2019-05-22T08:45:27.467Z,16.8
2019-05-22T08:51:02.486Z,16.8
2019-05-22T08:56:37.574Z,18
2019-05-22T09:02:12.734Z,16.8
2019-05-22T09:07:47.861Z,21.5
2019-05-22T09:13:22.791Z,16.8
2019-05-22T09:18:58.140Z,14.4
2019-05-22T09:24:33.813Z,16.8
2019-05-22T09:30:08.822Z,16.8
2019-05-22T09:35:44.383Z,16.8
2019-05-22T09:41:19.742Z,21.5
2019-05-22T09:46:55.236Z,15.6
2019-05-22T09:52:30.269Z,16.8
2019-05-22T09:58:05.670Z,16.8
2019-05-22T10:03:41.075Z,22.8
2019-05-22T10:09:16.245Z,19.2
2019-05-22T10:14:51.236Z,19.2
2019-05-22T10:20:26.167Z,22.8
2019-05-22T10:26:01.390Z,18
2019-05-22T10:31:36.802Z,22.8
2019-05-22T10:37:12.272Z,21.5
2019-05-22T10:42:47.605Z,19.2
2019-05-22T10:48:22.926Z,20.4
2019-05-22T10:53:58.426Z,21.5
2019-05-22T10:59:33.983Z,21.5
2019-05-22T11:10:45.938Z,14.4
2019-05-22T11:16:21.797Z,13.2
2019-05-22T11:21:57.526Z,15.6
2019-05-22T11:27:33.210Z,13.2
2019-05-22T11:33:08.750Z,15.6
2019-05-22T11:38:44.504Z,15.6
2019-05-22T11:44:20.524Z,14.4
2019-05-22T11:49:55.735Z,14.4
2019-05-22T11:55:43.331Z,13.2
2019-05-22T12:01:07.305Z,15.6
2019-05-22T12:06:43.141Z,14.4
2019-05-22T12:12:18.608Z,7.2
2019-05-22T12:17:54.326Z,15.6
2019-05-22T12:23:30.379Z,18
2019-05-22T12:29:06.382Z,13.2
2019-05-22T12:34:41.944Z,10.7
2019-05-22T12:40:17.497Z,8.4
2019-05-22T12:45:53.590Z,11.9
2019-05-22T12:51:29.843Z,16.8
2019-05-22T12:57:04.900Z,5.9
2019-05-22T13:02:42.383Z,0
2019-05-22T13:08:20.478Z,15.6
2019-05-22T13:13:55.643Z,14.4
2019-05-22T13:19:30.627Z,9.6
2019-05-22T13:25:05.109Z,8.4
2019-05-22T13:30:39.426Z,11.9
2019-05-22T13:36:14.372Z,16.8
2019-05-22T13:41:49.374Z,13.2
2019-05-22T13:47:24.054Z,9.6
2019-05-22T13:52:58.382Z,3.6
2019-05-22T13:58:32.483Z,3.6
2019-05-22T14:04:07.218Z,13.2
2019-05-22T14:09:42.127Z,10.7
2019-05-22T14:15:17.076Z,7.2
2019-05-22T14:20:51.251Z,3.6
2019-05-22T14:26:25.589Z,8.4
2019-05-22T14:32:01.042Z,16.8
2019-05-22T14:37:36.809Z,18
2019-05-22T14:43:12.693Z,14.4
2019-05-22T14:48:49.265Z,18
2019-05-22T14:54:25.816Z,19.2
2019-05-22T15:00:02.515Z,20.4
2019-05-22T15:05:40.609Z,19.2
2019-05-22T15:11:16.253Z,21.5
2019-05-22T15:16:53.160Z,25.1
2019-05-22T15:22:29.786Z,20.4
2019-05-22T15:28:06.516Z,18
2019-05-22T15:33:43.075Z,16.8
2019-05-22T15:39:19.816Z,16.8
2019-05-22T15:44:56.686Z,27.6
2019-05-22T15:50:33.425Z,23.9
2019-05-22T15:56:10.241Z,15.6
2019-05-22T16:07:24.776Z,25.1
2019-05-22T16:13:01.939Z,22.8
2019-05-22T16:18:38.449Z,19.2
2019-05-22T16:24:15.010Z,22.8
2019-05-22T16:29:51.398Z,25.1
2019-05-22T16:35:27.640Z,23.9
2019-05-22T16:41:03.922Z,26.4
2019-05-22T16:46:40.111Z,22.8
2019-05-22T16:52:16.255Z,27.6
2019-05-22T16:57:52.308Z,26.4
2019-05-22T17:03:28.216Z,26.4
2019-05-22T17:09:04.420Z,20.4
2019-05-22T17:14:40.832Z,21.5
2019-05-22T17:20:16.724Z,21.5
2019-05-22T17:25:52.275Z,22.8
2019-05-22T17:31:27.705Z,22.8
2019-05-22T17:37:03.319Z,21.5
2019-05-22T17:42:38.733Z,21.5
2019-05-22T17:48:14.320Z,18
2019-05-22T17:53:49.781Z,23.9
2019-05-22T17:59:25.720Z,22.8
2019-05-22T18:05:01.054Z,25.1
2019-05-22T18:10:40.089Z,26.4
2019-05-22T18:16:11.394Z,20.4
2019-05-22T18:21:46.433Z,21.5
2019-05-22T18:27:25.016Z,20.4
2019-05-22T20:34:33.830Z,13.2
2019-05-22T20:40:08.113Z,13.2
2019-05-22T20:45:41.549Z,13.2
2019-05-22T20:51:15.401Z,11.9
2019-05-22T20:56:49.150Z,10.7
2019-05-22T21:02:22.985Z,8.4
2019-05-22T21:07:56.693Z,8.4
2019-05-22T21:13:29.940Z,7.2
2019-05-22T21:19:03.188Z,4.8
2019-05-22T21:24:36.556Z,0
2019-05-22T21:30:08.766Z,0
2019-05-22T21:35:41.602Z,0
2019-05-22T21:41:14.394Z,0
2019-05-22T21:46:47.095Z,0
2019-05-22T21:52:19.876Z,0
2019-05-22T21:57:52.545Z,0
2019-05-22T22:03:25.201Z,0
2019-05-22T22:08:57.839Z,0
2019-05-22T22:14:30.449Z,0
2019-05-22T22:20:03.005Z,0
2019-05-22T22:25:35.540Z,0
2019-05-22T22:31:08.032Z,0
2019-05-22T22:36:40.539Z,0
2019-05-22T22:42:13.069Z,0
2019-05-22T22:47:45.501Z,0
2019-05-22T22:53:18.036Z,0
2019-05-22T22:58:51.333Z,14.4
2019-05-22T23:04:24.685Z,11.9
2019-05-22T23:09:58.027Z,13.2
2019-05-22T23:15:31.359Z,13.2
2019-05-22T23:21:04.671Z,10.7
2019-05-22T23:26:37.999Z,11.9
2019-05-22T23:32:11.287Z,10.7
2019-05-22T23:37:44.576Z,10.7
2019-05-22T23:43:17.898Z,10.7
2019-05-22T23:48:51.220Z,8.4
2019-05-22T23:54:24.271Z,7.2
2019-05-22T23:59:57.479Z,8.4
